sensor_id;sensor_type;location;lat;lon;timestamp;temperature;humidity
32097;DHT22;18610;49.916;8.284;2023-12-04T00:01:21;-0.20;99.90
32097;DHT22;18610;49.916;8.284;2023-12-04T00:03:48;-0.20;99.90
32097;DHT22;18610;49.916;8.284;2023-12-04T00:06:15;-0.30;99.90
32097;DHT22;18610;49.916;8.284;2023-12-04T00:08:43;-0.30;99.90
32097;DHT22;18610;49.916;8.284;2023-12-04T00:11:10;-0.40;99.90
32097;DHT22;18610;49.916;8.284;2023-12-04T00:13:37;-0.40;99.90
32097;DHT22;18610;49.916;8.284;2023-12-04T00:16:04;-0.40;99.90
32097;DHT22;18610;49.916;8.284;2023-12-04T00:18:31;-0.40;99.90
32097;DHT22;18610;49.916;8.284;2023-12-04T00:20:58;-0.50;99.90
32097;DHT22;18610;49.916;8.284;2023-12-04T00:23:24;-0.50;99.90
32097;DHT22;18610;49.916;8.284;2023-12-04T00:25:53;-0.50;99.90
32097;DHT22;18610;49.916;8.284;2023-12-04T00:28:20;-0.50;99.90
32097;DHT22;18610;49.916;8.284;2023-12-04T00:30:47;-0.50;99.90
32097;DHT22;18610;49.916;8.284;2023-12-04T00:33:14;-0.50;99.90
32097;DHT22;18610;49.916;8.284;2023-12-04T00:35:40;-0.60;99.90
32097;DHT22;18610;49.916;8.284;2023-12-04T00:38:07;-0.70;99.90
32097;DHT22;18610;49.916;8.284;2023-12-04T00:40:34;-0.70;99.90
32097;DHT22;18610;49.916;8.284;2023-12-04T00:43:02;-0.70;99.90
32097;DHT22;18610;49.916;8.284;2023-12-04T00:45:28;-0.80;99.90
32097;DHT22;18610;49.916;8.284;2023-12-04T00:47:55;-0.90;99.90
32097;DHT22;18610;49.916;8.284;2023-12-04T00:50:22;-1.00;99.90
32097;DHT22;18610;49.916;8.284;2023-12-04T00:52:48;-1.00;99.90
32097;DHT22;18610;49.916;8.284;2023-12-04T00:55:15;-1.00;99.90
32097;DHT22;18610;49.916;8.284;2023-12-04T00:57:42;-1.00;99.90
32097;DHT22;18610;49.916;8.284;2023-12-04T01:00:11;-1.00;99.90
32097;DHT22;18610;49.916;8.284;2023-12-04T01:02:38;-1.00;99.90
32097;DHT22;18610;49.916;8.284;2023-12-04T01:05:05;-1.00;99.90
32097;DHT22;18610;49.916;8.284;2023-12-04T01:07:31;-1.00;99.90
32097;DHT22;18610;49.916;8.284;2023-12-04T01:09:58;-1.00;99.90
32097;DHT22;18610;49.916;8.284;2023-12-04T01:12:25;-1.00;99.90
32097;DHT22;18610;49.916;8.284;2023-12-04T01:14:52;-1.00;99.90
32097;DHT22;18610;49.916;8.284;2023-12-04T01:17:20;-1.10;99.90
32097;DHT22;18610;49.916;8.284;2023-12-04T01:19:46;-1.10;99.90
32097;DHT22;18610;49.916;8.284;2023-12-04T01:22:13;-1.10;99.90
32097;DHT22;18610;49.916;8.284;2023-12-04T01:24:40;-1.10;99.90
32097;DHT22;18610;49.916;8.284;2023-12-04T01:27:06;-1.00;99.90
32097;DHT22;18610;49.916;8.284;2023-12-04T01:29:33;-1.00;99.90
32097;DHT22;18610;49.916;8.284;2023-12-04T01:32:00;-1.00;99.90
32097;DHT22;18610;49.916;8.284;2023-12-04T01:34:28;-1.00;99.90
32097;DHT22;18610;49.916;8.284;2023-12-04T01:36:54;-1.00;99.90
32097;DHT22;18610;49.916;8.284;2023-12-04T01:39:20;-1.00;99.90
32097;DHT22;18610;49.916;8.284;2023-12-04T01:41:47;-1.10;99.90
32097;DHT22;18610;49.916;8.284;2023-12-04T01:44:13;-1.10;99.90
32097;DHT22;18610;49.916;8.284;2023-12-04T01:46:40;-1.10;99.90
32097;DHT22;18610;49.916;8.284;2023-12-04T01:49:07;-1.10;99.90
32097;DHT22;18610;49.916;8.284;2023-12-04T01:51:35;-1.10;99.90
32097;DHT22;18610;49.916;8.284;2023-12-04T01:54:03;-1.20;99.90
32097;DHT22;18610;49.916;8.284;2023-12-04T01:56:31;-1.30;99.90
32097;DHT22;18610;49.916;8.284;2023-12-04T01:58:59;-1.40;99.90
32097;DHT22;18610;49.916;8.284;2023-12-04T02:01:26;-1.40;99.90
32097;DHT22;18610;49.916;8.284;2023-12-04T02:03:54;-1.40;99.90
32097;DHT22;18610;49.916;8.284;2023-12-04T02:06:21;-1.40;99.90
32097;DHT22;18610;49.916;8.284;2023-12-04T02:08:49;-1.40;99.90
32097;DHT22;18610;49.916;8.284;2023-12-04T02:11:16;-1.30;99.90
32097;DHT22;18610;49.916;8.284;2023-12-04T02:13:43;-1.30;99.90
32097;DHT22;18610;49.916;8.284;2023-12-04T02:16:10;-1.30;99.90
32097;DHT22;18610;49.916;8.284;2023-12-04T02:18:39;-1.30;99.90
32097;DHT22;18610;49.916;8.284;2023-12-04T02:21:06;-1.30;99.90
32097;DHT22;18610;49.916;8.284;2023-12-04T02:23:33;-1.30;99.90
32097;DHT22;18610;49.916;8.284;2023-12-04T02:26:05;-1.30;99.90
32097;DHT22;18610;49.916;8.284;2023-12-04T02:28:35;-1.30;99.90
32097;DHT22;18610;49.916;8.284;2023-12-04T02:31:04;-1.30;99.90
32097;DHT22;18610;49.916;8.284;2023-12-04T02:33:33;-1.20;99.90
32097;DHT22;18610;49.916;8.284;2023-12-04T02:36:02;-1.30;99.90
32097;DHT22;18610;49.916;8.284;2023-12-04T02:38:30;-1.30;99.90
32097;DHT22;18610;49.916;8.284;2023-12-04T02:40:57;-1.30;99.90
32097;DHT22;18610;49.916;8.284;2023-12-04T02:43:25;-1.30;99.90
32097;DHT22;18610;49.916;8.284;2023-12-04T02:45:52;-1.40;99.90
32097;DHT22;18610;49.916;8.284;2023-12-04T02:48:18;-1.40;99.90
32097;DHT22;18610;49.916;8.284;2023-12-04T02:50:45;-1.40;99.90
32097;DHT22;18610;49.916;8.284;2023-12-04T02:53:12;-1.40;99.90
32097;DHT22;18610;49.916;8.284;2023-12-04T02:55:38;-1.40;99.90
32097;DHT22;18610;49.916;8.284;2023-12-04T02:58:05;-1.40;99.90
32097;DHT22;18610;49.916;8.284;2023-12-04T03:00:33;-1.40;99.90
32097;DHT22;18610;49.916;8.284;2023-12-04T03:03:00;-1.50;99.90
32097;DHT22;18610;49.916;8.284;2023-12-04T03:05:26;-1.50;99.90
32097;DHT22;18610;49.916;8.284;2023-12-04T03:07:53;-1.50;99.90
32097;DHT22;18610;49.916;8.284;2023-12-04T03:10:19;-1.50;99.90
32097;DHT22;18610;49.916;8.284;2023-12-04T03:12:46;-1.50;99.90
32097;DHT22;18610;49.916;8.284;2023-12-04T03:15:13;-1.50;99.90
32097;DHT22;18610;49.916;8.284;2023-12-04T03:17:41;-1.50;99.90
32097;DHT22;18610;49.916;8.284;2023-12-04T03:20:09;-1.50;99.90
32097;DHT22;18610;49.916;8.284;2023-12-04T03:22:36;-1.50;99.90
32097;DHT22;18610;49.916;8.284;2023-12-04T03:25:04;-1.50;99.90
32097;DHT22;18610;49.916;8.284;2023-12-04T03:27:31;-1.40;99.90
32097;DHT22;18610;49.916;8.284;2023-12-04T03:29:57;-1.40;99.90
32097;DHT22;18610;49.916;8.284;2023-12-04T03:32:24;-1.40;99.90
32097;DHT22;18610;49.916;8.284;2023-12-04T03:34:52;-1.30;99.90
32097;DHT22;18610;49.916;8.284;2023-12-04T03:37:19;-1.30;99.90
32097;DHT22;18610;49.916;8.284;2023-12-04T03:39:45;-1.30;99.90
32097;DHT22;18610;49.916;8.284;2023-12-04T03:42:12;-1.30;99.90
32097;DHT22;18610;49.916;8.284;2023-12-04T03:44:39;-1.30;99.90
32097;DHT22;18610;49.916;8.284;2023-12-04T03:47:05;-1.30;99.90
32097;DHT22;18610;49.916;8.284;2023-12-04T03:49:32;-1.20;99.90
32097;DHT22;18610;49.916;8.284;2023-12-04T03:52:00;-1.20;99.90
32097;DHT22;18610;49.916;8.284;2023-12-04T03:54:27;-1.30;99.90
32097;DHT22;18610;49.916;8.284;2023-12-04T03:56:53;-1.30;99.90
32097;DHT22;18610;49.916;8.284;2023-12-04T03:59:20;-1.20;99.90
32097;DHT22;18610;49.916;8.284;2023-12-04T04:01:46;-1.20;99.90
32097;DHT22;18610;49.916;8.284;2023-12-04T04:04:13;-1.20;99.90
32097;DHT22;18610;49.916;8.284;2023-12-04T04:06:40;-1.20;99.90
32097;DHT22;18610;49.916;8.284;2023-12-04T04:09:08;-1.20;99.90
32097;DHT22;18610;49.916;8.284;2023-12-04T04:11:35;-1.20;99.90
32097;DHT22;18610;49.916;8.284;2023-12-04T04:14:01;-1.10;99.90
32097;DHT22;18610;49.916;8.284;2023-12-04T04:16:28;-1.10;99.90
32097;DHT22;18610;49.916;8.284;2023-12-04T04:18:55;-1.10;99.90
32097;DHT22;18610;49.916;8.284;2023-12-04T04:21:22;-1.10;99.90
32097;DHT22;18610;49.916;8.284;2023-12-04T04:23:47;-1.00;99.90
32097;DHT22;18610;49.916;8.284;2023-12-04T04:26:15;-1.00;99.90
32097;DHT22;18610;49.916;8.284;2023-12-04T04:28:42;-1.00;99.90
32097;DHT22;18610;49.916;8.284;2023-12-04T04:31:09;-1.00;99.90
32097;DHT22;18610;49.916;8.284;2023-12-04T04:33:35;-1.00;99.90
32097;DHT22;18610;49.916;8.284;2023-12-04T04:36:02;-0.90;99.90
32097;DHT22;18610;49.916;8.284;2023-12-04T04:38:29;-0.80;99.90
32097;DHT22;18610;49.916;8.284;2023-12-04T04:40:56;-0.80;99.90
32097;DHT22;18610;49.916;8.284;2023-12-04T04:43:24;-0.80;99.90
32097;DHT22;18610;49.916;8.284;2023-12-04T04:45:51;-0.90;99.90
32097;DHT22;18610;49.916;8.284;2023-12-04T04:48:17;-0.90;99.90
32097;DHT22;18610;49.916;8.284;2023-12-04T04:50:45;-0.90;99.90
32097;DHT22;18610;49.916;8.284;2023-12-04T04:53:11;-0.90;99.90
32097;DHT22;18610;49.916;8.284;2023-12-04T04:55:38;-0.90;99.90
32097;DHT22;18610;49.916;8.284;2023-12-04T04:58:05;-1.00;99.90
32097;DHT22;18610;49.916;8.284;2023-12-04T05:00:33;-1.00;99.90
32097;DHT22;18610;49.916;8.284;2023-12-04T05:03:00;-0.90;99.90
32097;DHT22;18610;49.916;8.284;2023-12-04T05:05:26;-0.90;99.90
32097;DHT22;18610;49.916;8.284;2023-12-04T05:07:53;-0.90;99.90
32097;DHT22;18610;49.916;8.284;2023-12-04T05:10:19;-1.00;99.90
32097;DHT22;18610;49.916;8.284;2023-12-04T05:12:46;-1.00;99.90
32097;DHT22;18610;49.916;8.284;2023-12-04T05:15:13;-0.90;99.90
32097;DHT22;18610;49.916;8.284;2023-12-04T05:17:41;-1.00;99.90
32097;DHT22;18610;49.916;8.284;2023-12-04T05:20:08;-1.00;99.90
32097;DHT22;18610;49.916;8.284;2023-12-04T05:22:35;-1.00;99.90
32097;DHT22;18610;49.916;8.284;2023-12-04T05:25:02;-1.00;99.90
32097;DHT22;18610;49.916;8.284;2023-12-04T05:27:29;-1.00;99.90
32097;DHT22;18610;49.916;8.284;2023-12-04T05:29:55;-1.00;99.90
32097;DHT22;18610;49.916;8.284;2023-12-04T05:32:22;-1.00;99.90
32097;DHT22;18610;49.916;8.284;2023-12-04T05:34:50;-1.00;99.90
32097;DHT22;18610;49.916;8.284;2023-12-04T05:37:17;-0.90;99.90
32097;DHT22;18610;49.916;8.284;2023-12-04T05:39:43;-0.90;99.90
32097;DHT22;18610;49.916;8.284;2023-12-04T05:42:10;-0.90;99.90
32097;DHT22;18610;49.916;8.284;2023-12-04T05:44:37;-0.90;99.90
32097;DHT22;18610;49.916;8.284;2023-12-04T05:47:04;-1.00;99.90
32097;DHT22;18610;49.916;8.284;2023-12-04T05:49:30;-1.00;99.90
32097;DHT22;18610;49.916;8.284;2023-12-04T05:52:00;-1.00;99.90
32097;DHT22;18610;49.916;8.284;2023-12-04T05:54:26;-1.00;99.90
32097;DHT22;18610;49.916;8.284;2023-12-04T05:56:53;-1.00;99.90
32097;DHT22;18610;49.916;8.284;2023-12-04T05:59:19;-1.00;99.90
32097;DHT22;18610;49.916;8.284;2023-12-04T06:01:46;-1.00;99.90
32097;DHT22;18610;49.916;8.284;2023-12-04T06:04:13;-1.00;99.90
32097;DHT22;18610;49.916;8.284;2023-12-04T06:06:40;-1.00;99.90
32097;DHT22;18610;49.916;8.284;2023-12-04T06:09:08;-1.10;99.90
32097;DHT22;18610;49.916;8.284;2023-12-04T06:11:35;-1.00;99.90
32097;DHT22;18610;49.916;8.284;2023-12-04T06:14:01;-1.10;99.90
32097;DHT22;18610;49.916;8.284;2023-12-04T06:16:28;-1.00;99.90
32097;DHT22;18610;49.916;8.284;2023-12-04T06:18:55;-1.00;99.90
32097;DHT22;18610;49.916;8.284;2023-12-04T06:21:21;-0.90;99.90
32097;DHT22;18610;49.916;8.284;2023-12-04T06:23:49;-0.80;99.90
32097;DHT22;18610;49.916;8.284;2023-12-04T06:26:17;-0.80;99.90
32097;DHT22;18610;49.916;8.284;2023-12-04T06:28:45;-0.80;99.90
32097;DHT22;18610;49.916;8.284;2023-12-04T06:31:13;-0.80;99.90
32097;DHT22;18610;49.916;8.284;2023-12-04T06:33:40;-0.70;99.90
32097;DHT22;18610;49.916;8.284;2023-12-04T06:36:08;-0.70;99.90
32097;DHT22;18610;49.916;8.284;2023-12-04T06:38:39;-0.80;99.90
32097;DHT22;18610;49.916;8.284;2023-12-04T06:41:07;-0.80;99.90
32097;DHT22;18610;49.916;8.284;2023-12-04T06:43:36;-0.80;99.90
32097;DHT22;18610;49.916;8.284;2023-12-04T06:46:04;-0.70;99.90
32097;DHT22;18610;49.916;8.284;2023-12-04T06:48:32;-0.70;99.90
32097;DHT22;18610;49.916;8.284;2023-12-04T06:50:59;-0.70;99.90
32097;DHT22;18610;49.916;8.284;2023-12-04T06:53:25;-0.70;99.90
32097;DHT22;18610;49.916;8.284;2023-12-04T06:55:52;-0.70;99.90
32097;DHT22;18610;49.916;8.284;2023-12-04T06:58:19;-0.70;99.90
32097;DHT22;18610;49.916;8.284;2023-12-04T07:00:47;-0.60;99.90
32097;DHT22;18610;49.916;8.284;2023-12-04T07:03:14;-0.60;99.90
32097;DHT22;18610;49.916;8.284;2023-12-04T07:05:41;-0.60;99.90
32097;DHT22;18610;49.916;8.284;2023-12-04T07:08:07;-0.60;99.90
32097;DHT22;18610;49.916;8.284;2023-12-04T07:10:35;-0.50;99.90
32097;DHT22;18610;49.916;8.284;2023-12-04T07:13:02;-0.50;99.90
32097;DHT22;18610;49.916;8.284;2023-12-04T07:15:29;-0.40;99.90
32097;DHT22;18610;49.916;8.284;2023-12-04T07:17:57;-0.40;99.90
32097;DHT22;18610;49.916;8.284;2023-12-04T07:20:23;-0.30;99.90
32097;DHT22;18610;49.916;8.284;2023-12-04T07:22:50;-0.30;99.90
32097;DHT22;18610;49.916;8.284;2023-12-04T07:25:16;-0.20;99.90
32097;DHT22;18610;49.916;8.284;2023-12-04T07:27:43;-0.20;99.90
32097;DHT22;18610;49.916;8.284;2023-12-04T07:30:10;-0.10;99.90
32097;DHT22;18610;49.916;8.284;2023-12-04T07:32:37;-0.10;99.90
32097;DHT22;18610;49.916;8.284;2023-12-04T07:35:07;-0.10;99.90
32097;DHT22;18610;49.916;8.284;2023-12-04T07:37:33;0.00;99.90
32097;DHT22;18610;49.916;8.284;2023-12-04T07:40:00;0.00;99.90
32097;DHT22;18610;49.916;8.284;2023-12-04T07:42:27;0.00;99.90
32097;DHT22;18610;49.916;8.284;2023-12-04T07:44:53;0.10;99.90
32097;DHT22;18610;49.916;8.284;2023-12-04T07:47:20;0.10;99.90
32097;DHT22;18610;49.916;8.284;2023-12-04T07:49:48;0.10;99.90
32097;DHT22;18610;49.916;8.284;2023-12-04T07:52:16;0.20;99.90
32097;DHT22;18610;49.916;8.284;2023-12-04T07:54:43;0.20;99.90
32097;DHT22;18610;49.916;8.284;2023-12-04T07:57:10;0.30;99.90
32097;DHT22;18610;49.916;8.284;2023-12-04T07:59:36;0.30;99.90
32097;DHT22;18610;49.916;8.284;2023-12-04T08:02:03;0.30;99.90
32097;DHT22;18610;49.916;8.284;2023-12-04T08:04:30;0.30;99.90
32097;DHT22;18610;49.916;8.284;2023-12-04T08:06:57;0.40;99.90
32097;DHT22;18610;49.916;8.284;2023-12-04T08:09:25;0.40;99.90
32097;DHT22;18610;49.916;8.284;2023-12-04T08:11:51;0.40;99.90
32097;DHT22;18610;49.916;8.284;2023-12-04T08:14:18;0.40;99.90
32097;DHT22;18610;49.916;8.284;2023-12-04T08:16:45;0.40;99.90
32097;DHT22;18610;49.916;8.284;2023-12-04T08:19:12;0.40;99.90
32097;DHT22;18610;49.916;8.284;2023-12-04T08:21:38;0.40;99.90
32097;DHT22;18610;49.916;8.284;2023-12-04T08:24:05;0.40;99.90
32097;DHT22;18610;49.916;8.284;2023-12-04T08:26:33;0.50;99.90
32097;DHT22;18610;49.916;8.284;2023-12-04T08:29:00;0.50;99.90
32097;DHT22;18610;49.916;8.284;2023-12-04T08:31:26;0.60;99.90
32097;DHT22;18610;49.916;8.284;2023-12-04T08:33:53;0.70;99.90
32097;DHT22;18610;49.916;8.284;2023-12-04T08:36:20;0.70;99.90
32097;DHT22;18610;49.916;8.284;2023-12-04T08:38:46;0.70;99.90
32097;DHT22;18610;49.916;8.284;2023-12-04T08:41:13;0.80;99.90
32097;DHT22;18610;49.916;8.284;2023-12-04T08:43:41;0.90;99.90
32097;DHT22;18610;49.916;8.284;2023-12-04T08:46:12;0.90;99.90
32097;DHT22;18610;49.916;8.284;2023-12-04T08:48:39;0.90;99.90
32097;DHT22;18610;49.916;8.284;2023-12-04T08:51:06;1.00;99.90
32097;DHT22;18610;49.916;8.284;2023-12-04T08:53:34;1.10;99.90
32097;DHT22;18610;49.916;8.284;2023-12-04T08:56:00;1.10;99.90
32097;DHT22;18610;49.916;8.284;2023-12-04T08:58:28;1.20;99.90
32097;DHT22;18610;49.916;8.284;2023-12-04T09:00:56;1.20;99.90
32097;DHT22;18610;49.916;8.284;2023-12-04T09:03:22;1.20;99.90
32097;DHT22;18610;49.916;8.284;2023-12-04T09:05:49;1.20;99.90
32097;DHT22;18610;49.916;8.284;2023-12-04T09:08:17;1.20;99.90
32097;DHT22;18610;49.916;8.284;2023-12-04T09:10:44;1.30;99.90
32097;DHT22;18610;49.916;8.284;2023-12-04T09:13:11;1.30;99.90
32097;DHT22;18610;49.916;8.284;2023-12-04T09:15:38;1.30;99.90
32097;DHT22;18610;49.916;8.284;2023-12-04T09:18:06;1.30;99.90
32097;DHT22;18610;49.916;8.284;2023-12-04T09:20:32;1.30;99.90
32097;DHT22;18610;49.916;8.284;2023-12-04T09:22:59;1.30;99.90
32097;DHT22;18610;49.916;8.284;2023-12-04T09:25:25;1.20;99.90
32097;DHT22;18610;49.916;8.284;2023-12-04T09:27:53;1.10;99.90
32097;DHT22;18610;49.916;8.284;2023-12-04T09:30:19;1.20;99.90
32097;DHT22;18610;49.916;8.284;2023-12-04T09:32:46;1.20;99.90
32097;DHT22;18610;49.916;8.284;2023-12-04T09:35:14;1.20;99.90
32097;DHT22;18610;49.916;8.284;2023-12-04T09:37:41;1.20;99.90
32097;DHT22;18610;49.916;8.284;2023-12-04T09:40:08;1.20;99.90
32097;DHT22;18610;49.916;8.284;2023-12-04T09:42:36;1.10;99.90
32097;DHT22;18610;49.916;8.284;2023-12-04T09:45:03;1.10;99.90
32097;DHT22;18610;49.916;8.284;2023-12-04T09:47:32;1.10;99.90
32097;DHT22;18610;49.916;8.284;2023-12-04T09:49:59;1.10;99.90
32097;DHT22;18610;49.916;8.284;2023-12-04T09:52:28;1.10;99.90
32097;DHT22;18610;49.916;8.284;2023-12-04T09:54:55;1.20;99.90
32097;DHT22;18610;49.916;8.284;2023-12-04T09:57:22;1.20;99.90
32097;DHT22;18610;49.916;8.284;2023-12-04T09:59:51;1.20;99.90
32097;DHT22;18610;49.916;8.284;2023-12-04T10:02:18;1.30;99.90
32097;DHT22;18610;49.916;8.284;2023-12-04T10:04:47;1.20;99.90
32097;DHT22;18610;49.916;8.284;2023-12-04T10:07:14;1.20;99.90
32097;DHT22;18610;49.916;8.284;2023-12-04T10:09:42;1.20;99.90
32097;DHT22;18610;49.916;8.284;2023-12-04T10:12:09;1.20;99.90
32097;DHT22;18610;49.916;8.284;2023-12-04T10:14:36;1.30;99.90
32097;DHT22;18610;49.916;8.284;2023-12-04T10:17:14;1.30;99.90
32097;DHT22;18610;49.916;8.284;2023-12-04T10:19:40;1.30;99.90
32097;DHT22;18610;49.916;8.284;2023-12-04T10:22:08;1.40;99.90
32097;DHT22;18610;49.916;8.284;2023-12-04T10:24:37;1.30;99.90
32097;DHT22;18610;49.916;8.284;2023-12-04T10:27:06;1.40;99.90
32097;DHT22;18610;49.916;8.284;2023-12-04T10:29:43;1.50;99.90
32097;DHT22;18610;49.916;8.284;2023-12-04T10:32:11;1.50;99.90
32097;DHT22;18610;49.916;8.284;2023-12-04T10:34:38;1.50;99.90
32097;DHT22;18610;49.916;8.284;2023-12-04T10:37:05;1.50;99.90
32097;DHT22;18610;49.916;8.284;2023-12-04T10:39:32;1.60;99.90
32097;DHT22;18610;49.916;8.284;2023-12-04T10:42:23;1.60;99.90
32097;DHT22;18610;49.916;8.284;2023-12-04T10:44:50;1.60;99.90
32097;DHT22;18610;49.916;8.284;2023-12-04T10:47:16;1.60;99.90
32097;DHT22;18610;49.916;8.284;2023-12-04T10:49:43;1.60;99.90
32097;DHT22;18610;49.916;8.284;2023-12-04T10:52:11;1.70;99.90
32097;DHT22;18610;49.916;8.284;2023-12-04T10:54:38;1.70;99.90
32097;DHT22;18610;49.916;8.284;2023-12-04T10:57:05;1.80;99.90
32097;DHT22;18610;49.916;8.284;2023-12-04T10:59:38;1.80;99.90
32097;DHT22;18610;49.916;8.284;2023-12-04T11:02:06;1.80;99.90
32097;DHT22;18610;49.916;8.284;2023-12-04T11:04:35;1.90;99.90
32097;DHT22;18610;49.916;8.284;2023-12-04T11:07:03;1.90;99.90
32097;DHT22;18610;49.916;8.284;2023-12-04T11:09:31;1.90;99.90
32097;DHT22;18610;49.916;8.284;2023-12-04T11:12:04;1.90;99.90
32097;DHT22;18610;49.916;8.284;2023-12-04T11:14:44;1.90;99.90
32097;DHT22;18610;49.916;8.284;2023-12-04T11:17:14;1.90;99.90
32097;DHT22;18610;49.916;8.284;2023-12-04T11:19:47;1.90;99.90
32097;DHT22;18610;49.916;8.284;2023-12-04T11:22:17;1.90;99.90
32097;DHT22;18610;49.916;8.284;2023-12-04T11:24:46;1.90;99.90
32097;DHT22;18610;49.916;8.284;2023-12-04T11:27:14;1.90;99.90
32097;DHT22;18610;49.916;8.284;2023-12-04T11:29:43;1.90;99.90
32097;DHT22;18610;49.916;8.284;2023-12-04T11:32:14;1.90;99.90
32097;DHT22;18610;49.916;8.284;2023-12-04T11:34:47;1.90;99.90
32097;DHT22;18610;49.916;8.284;2023-12-04T11:37:14;1.90;99.90
32097;DHT22;18610;49.916;8.284;2023-12-04T11:39:41;1.90;99.90
32097;DHT22;18610;49.916;8.284;2023-12-04T11:42:09;1.90;99.90
32097;DHT22;18610;49.916;8.284;2023-12-04T11:44:36;1.90;99.90
32097;DHT22;18610;49.916;8.284;2023-12-04T11:47:05;1.90;99.90
32097;DHT22;18610;49.916;8.284;2023-12-04T11:49:33;1.90;99.90
32097;DHT22;18610;49.916;8.284;2023-12-04T11:51:59;2.00;99.90
32097;DHT22;18610;49.916;8.284;2023-12-04T11:54:28;2.00;99.90
32097;DHT22;18610;49.916;8.284;2023-12-04T11:57:20;2.00;99.90
32097;DHT22;18610;49.916;8.284;2023-12-04T11:59:49;1.90;99.90
32097;DHT22;18610;49.916;8.284;2023-12-04T12:02:18;2.00;99.90
32097;DHT22;18610;49.916;8.284;2023-12-04T12:04:45;2.00;99.90
32097;DHT22;18610;49.916;8.284;2023-12-04T12:07:11;2.00;99.90
32097;DHT22;18610;49.916;8.284;2023-12-04T12:09:38;1.90;99.90
32097;DHT22;18610;49.916;8.284;2023-12-04T12:12:06;1.90;99.90
32097;DHT22;18610;49.916;8.284;2023-12-04T12:14:33;1.90;99.90
32097;DHT22;18610;49.916;8.284;2023-12-04T12:17:00;1.90;99.90
32097;DHT22;18610;49.916;8.284;2023-12-04T12:19:28;1.90;99.90
32097;DHT22;18610;49.916;8.284;2023-12-04T12:21:54;1.90;99.90
32097;DHT22;18610;49.916;8.284;2023-12-04T12:24:21;1.90;99.90
32097;DHT22;18610;49.916;8.284;2023-12-04T12:26:49;1.90;99.90
32097;DHT22;18610;49.916;8.284;2023-12-04T12:29:16;1.90;99.90
32097;DHT22;18610;49.916;8.284;2023-12-04T12:31:43;1.90;99.90
32097;DHT22;18610;49.916;8.284;2023-12-04T12:34:11;1.90;99.90
32097;DHT22;18610;49.916;8.284;2023-12-04T12:36:40;1.90;99.90
32097;DHT22;18610;49.916;8.284;2023-12-04T12:39:07;1.90;99.90
32097;DHT22;18610;49.916;8.284;2023-12-04T12:41:34;2.00;99.90
32097;DHT22;18610;49.916;8.284;2023-12-04T12:44:01;2.00;99.90
32097;DHT22;18610;49.916;8.284;2023-12-04T12:46:28;2.00;99.90
32097;DHT22;18610;49.916;8.284;2023-12-04T12:48:56;2.00;99.90
32097;DHT22;18610;49.916;8.284;2023-12-04T12:51:23;2.00;99.90
32097;DHT22;18610;49.916;8.284;2023-12-04T12:53:51;2.00;99.90
32097;DHT22;18610;49.916;8.284;2023-12-04T12:56:18;2.10;99.90
32097;DHT22;18610;49.916;8.284;2023-12-04T12:58:45;2.00;99.90
32097;DHT22;18610;49.916;8.284;2023-12-04T13:01:12;2.00;99.90
32097;DHT22;18610;49.916;8.284;2023-12-04T13:03:39;2.10;99.90
32097;DHT22;18610;49.916;8.284;2023-12-04T13:06:07;2.10;99.90
32097;DHT22;18610;49.916;8.284;2023-12-04T13:08:33;2.10;99.90
32097;DHT22;18610;49.916;8.284;2023-12-04T13:11:01;2.00;99.90
32097;DHT22;18610;49.916;8.284;2023-12-04T13:13:28;2.00;99.90
32097;DHT22;18610;49.916;8.284;2023-12-04T13:15:55;2.00;99.90
32097;DHT22;18610;49.916;8.284;2023-12-04T13:18:22;2.00;99.90
32097;DHT22;18610;49.916;8.284;2023-12-04T13:20:48;2.00;99.90
32097;DHT22;18610;49.916;8.284;2023-12-04T13:23:15;2.00;99.90
32097;DHT22;18610;49.916;8.284;2023-12-04T13:25:42;2.00;99.90
32097;DHT22;18610;49.916;8.284;2023-12-04T13:28:10;1.90;99.90
32097;DHT22;18610;49.916;8.284;2023-12-04T13:30:39;1.90;99.90
32097;DHT22;18610;49.916;8.284;2023-12-04T13:33:05;2.00;99.90
32097;DHT22;18610;49.916;8.284;2023-12-04T13:35:33;2.00;99.90
32097;DHT22;18610;49.916;8.284;2023-12-04T13:38:00;2.00;99.90
32097;DHT22;18610;49.916;8.284;2023-12-04T13:40:26;2.00;99.90
32097;DHT22;18610;49.916;8.284;2023-12-04T13:42:57;2.00;99.90
32097;DHT22;18610;49.916;8.284;2023-12-04T13:45:43;2.00;99.90
32097;DHT22;18610;49.916;8.284;2023-12-04T13:48:09;2.00;99.90
32097;DHT22;18610;49.916;8.284;2023-12-04T13:50:36;2.00;99.90
32097;DHT22;18610;49.916;8.284;2023-12-04T13:53:03;2.00;99.90
32097;DHT22;18610;49.916;8.284;2023-12-04T13:55:32;2.00;99.90
32097;DHT22;18610;49.916;8.284;2023-12-04T13:58:13;2.00;99.90
32097;DHT22;18610;49.916;8.284;2023-12-04T14:01:04;2.00;99.90
32097;DHT22;18610;49.916;8.284;2023-12-04T14:03:39;2.00;99.90
32097;DHT22;18610;49.916;8.284;2023-12-04T14:06:06;2.00;99.90
32097;DHT22;18610;49.916;8.284;2023-12-04T14:08:33;2.00;99.90
32097;DHT22;18610;49.916;8.284;2023-12-04T14:10:59;2.00;99.90
32097;DHT22;18610;49.916;8.284;2023-12-04T14:13:26;2.00;99.90
32097;DHT22;18610;49.916;8.284;2023-12-04T14:15:53;2.00;99.90
32097;DHT22;18610;49.916;8.284;2023-12-04T14:18:22;2.00;99.90
32097;DHT22;18610;49.916;8.284;2023-12-04T14:20:48;2.00;99.90
32097;DHT22;18610;49.916;8.284;2023-12-04T14:23:16;1.90;99.90
32097;DHT22;18610;49.916;8.284;2023-12-04T14:25:44;1.90;99.90
32097;DHT22;18610;49.916;8.284;2023-12-04T14:28:11;1.90;99.90
32097;DHT22;18610;49.916;8.284;2023-12-04T14:30:37;2.00;99.90
32097;DHT22;18610;49.916;8.284;2023-12-04T14:33:05;2.00;99.90
32097;DHT22;18610;49.916;8.284;2023-12-04T14:35:33;2.00;99.90
32097;DHT22;18610;49.916;8.284;2023-12-04T14:38:00;2.10;99.90
32097;DHT22;18610;49.916;8.284;2023-12-04T14:40:27;2.10;99.90
32097;DHT22;18610;49.916;8.284;2023-12-04T14:42:53;2.10;99.90
32097;DHT22;18610;49.916;8.284;2023-12-04T14:45:20;2.10;99.90
32097;DHT22;18610;49.916;8.284;2023-12-04T14:47:47;2.00;99.90
32097;DHT22;18610;49.916;8.284;2023-12-04T14:50:17;2.00;99.90
32097;DHT22;18610;49.916;8.284;2023-12-04T14:52:44;2.00;99.90
32097;DHT22;18610;49.916;8.284;2023-12-04T14:55:15;2.10;99.90
32097;DHT22;18610;49.916;8.284;2023-12-04T14:57:55;2.00;99.90
32097;DHT22;18610;49.916;8.284;2023-12-04T15:00:51;2.00;99.90
32097;DHT22;18610;49.916;8.284;2023-12-04T15:03:50;2.00;99.90
32097;DHT22;18610;49.916;8.284;2023-12-04T15:06:34;2.00;99.90
32097;DHT22;18610;49.916;8.284;2023-12-04T15:09:28;2.00;99.90
32097;DHT22;18610;49.916;8.284;2023-12-04T15:12:24;2.00;99.90
32097;DHT22;18610;49.916;8.284;2023-12-04T15:14:58;2.00;99.90
32097;DHT22;18610;49.916;8.284;2023-12-04T15:17:38;1.90;99.90
32097;DHT22;18610;49.916;8.284;2023-12-04T15:20:14;1.90;99.90
32097;DHT22;18610;49.916;8.284;2023-12-04T15:22:57;1.90;99.90
32097;DHT22;18610;49.916;8.284;2023-12-04T15:25:25;1.90;99.90
32097;DHT22;18610;49.916;8.284;2023-12-04T15:27:52;1.90;99.90
32097;DHT22;18610;49.916;8.284;2023-12-04T15:30:18;1.90;99.90
32097;DHT22;18610;49.916;8.284;2023-12-04T15:32:44;1.80;99.90
32097;DHT22;18610;49.916;8.284;2023-12-04T15:35:11;1.80;99.90
32097;DHT22;18610;49.916;8.284;2023-12-04T15:37:36;1.80;99.90
32097;DHT22;18610;49.916;8.284;2023-12-04T15:40:04;1.70;99.90
32097;DHT22;18610;49.916;8.284;2023-12-04T15:42:33;1.70;99.90